Time;durP1;ratioP1;P1;durP2;ratioP2;P2;SDS_P1;SDS_P2;PMS_P1;PMS_P2;Temp;Humidity;BMP_temperature;BMP_pressure;BME280_temperature;BME280_humidity;BME280_pressure;Samples;Min_cycle;Max_cycle;Signal;HPM_P1;HPM_P2
2021/08/23 00:00:01;;;;;;;;;;;;;;;;;;5012536;28;20281;-60
2021/08/23 00:02:27;;;;;;;;;;;;;;;;;;5012302;28;19949;-60
2021/08/23 00:04:53;;;;;;;;;;;;;;;;;;5011849;28;19967;-60
2021/08/23 00:07:19;;;;;;;;;;;;;;;;;;5011249;28;20261;-60
2021/08/23 00:09:47;;;;;;;;;;;;;;;;;;5010702;28;19917;-60
2021/08/23 00:12:12;;;;;;;;;;;;;;;;;;5011357;28;19967;-60
2021/08/23 00:14:38;;;;;;;;;;;;;;;;;;5012253;28;19913;-60
2021/08/23 00:17:04;;;;;;;;;;;;;;;;;;5004854;28;19906;-59
2021/08/23 00:19:31;;;;;;;;;;;;;;;;;;5012469;28;19927;-60
2021/08/23 00:22:01;;;;;;;;;;;;;;;;;;5012758;28;19905;-60
2021/08/23 00:24:27;;;;;;;;;;;;;;;;;;5011783;28;19916;-60
2021/08/23 00:26:53;;;;;;;;;;;;;;;;;;5011860;28;19913;-59
2021/08/23 00:29:18;;;;;;;;;;;;;;;;;;5007008;28;20258;-60
2021/08/23 00:31:44;;;;;;;;;;;;;;;;;;5012690;28;19905;-59
2021/08/23 00:34:10;;;;;;;;;;;;;;;;;;5011966;28;19993;-59
2021/08/23 00:36:36;;;;;;;;;;;;;;;;;;5011586;28;20294;-59
2021/08/23 00:39:02;;;;;;;;;;;;;;;;;;5009894;28;19909;-60
2021/08/23 00:41:31;;;;;;;;;;;;;;;;;;5012167;28;19920;-60
2021/08/23 00:43:57;;;;;;;;;;;;;;;;;;5011794;28;19905;-60
2021/08/23 00:46:22;;;;;;;;;;;;;;;;;;5010995;28;19960;-60
2021/08/23 00:48:48;;;;;;;;;;;;;;;;;;5004639;28;19914;-60
2021/08/23 00:51:14;;;;;;;;;;;;;;;;;;5010072;28;19913;-60
2021/08/23 00:53:40;;;;;;;;;;;;;;;;;;5012205;28;19964;-60
2021/08/23 00:56:06;;;;;;;;;;;;;;;;;;5011674;28;20468;-60
2021/08/23 00:58:32;;;;;;;;;;;;;;;;;;5005250;28;19944;-60
2021/08/23 01:00:58;;;;;;;;;;;;;;;;;;5009163;28;19912;-59
2021/08/23 01:03:24;;;;;;;;;;;;;;;;;;5012481;28;19975;-60
2021/08/23 01:05:50;;;;;;;;;;;;;;;;;;5011832;28;20391;-60
2021/08/23 01:08:16;;;;;;;;;;;;;;;;;;5006859;28;19914;-60
2021/08/23 01:10:42;;;;;;;;;;;;;;;;;;5011144;28;19940;-60
2021/08/23 01:13:08;;;;;;;;;;;;;;;;;;5002536;28;20368;-59
2021/08/23 01:15:34;;;;;;;;;;;;;;;;;;5010726;28;19917;-60
2021/08/23 01:18:00;;;;;;;;;;;;;;;;;;5007312;28;20300;-60
2021/08/23 01:20:26;;;;;;;;;;;;;;;;;;5013025;28;19917;-60
2021/08/23 01:22:52;;;;;;;;;;;;;;;;;;5007462;28;19914;-60
2021/08/23 01:25:18;;;;;;;;;;;;;;;;;;5014601;28;19952;-60
2021/08/23 01:27:44;;;;;;;;;;;;;;;;;;5011362;28;20025;-60
2021/08/23 01:30:10;;;;;;;;;;;;;;;;;;5015746;28;19945;-60
2021/08/23 01:32:36;;;;;;;;;;;;;;;;;;5008830;28;19917;-60
2021/08/23 01:35:02;;;;;;;;;;;;;;;;;;5014299;28;20013;-59
2021/08/23 01:37:28;;;;;;;;;;;;;;;;;;5014667;28;20369;-60
2021/08/23 01:39:54;;;;;;;;;;;;;;;;;;5014871;28;19913;-59
2021/08/23 01:42:19;;;;;;;;;;;;;;;;;;5015446;28;20005;-60
2021/08/23 01:44:45;;;;;;;;;;;;;;;;;;5014137;28;19913;-60
2021/08/23 01:47:11;;;;;;;;;;;;;;;;;;5011793;28;19913;-60
2021/08/23 01:49:37;;;;;;;;;;;;;;;;;;5013548;28;19963;-60
2021/08/23 01:52:03;;;;;;;;;;;;;;;;;;5015328;28;19905;-60
2021/08/23 01:54:29;;;;;;;;;;;;;;;;;;5010380;28;19995;-60
2021/08/23 01:56:55;;;;;;;;;;;;;;;;;;5009921;28;19952;-60
2021/08/23 01:59:21;;;;;;;;;;;;;;;;;;5014701;28;19956;-60
2021/08/23 02:01:47;;;;;;;;;;;;;;;;;;5013921;28;20393;-59
2021/08/23 02:04:13;;;;;;;;;;;;;;;;;;5021420;28;19963;-61
2021/08/23 02:06:39;;;;;;;;;;;;;;;;;;5014902;28;19909;-59
2021/08/23 02:09:05;;;;;;;;;;;;;;;;;;5014547;28;19948;-60
2021/08/23 02:11:30;;;;;;;;;;;;;;;;;;5013363;28;19964;-60
2021/08/23 02:13:56;;;;;;;;;;;;;;;;;;5014325;28;19940;-60
2021/08/23 02:16:22;;;;;;;;;;;;;;;;;;5015212;28;19999;-60
2021/08/23 02:18:48;;;;;;;;;;;;;;;;;;5013874;28;19910;-60
2021/08/23 02:21:14;;;;;;;;;;;;;;;;;;5013239;28;19933;-60
2021/08/23 02:23:40;;;;;;;;;;;;;;;;;;5013364;28;19991;-60
2021/08/23 02:26:06;;;;;;;;;;;;;;;;;;5014402;28;20379;-60
2021/08/23 02:28:32;;;;;;;;;;;;;;;;;;5012959;28;19915;-60
2021/08/23 02:30:58;;;;;;;;;;;;;;;;;;5013324;28;19909;-60
2021/08/23 02:33:23;;;;;;;;;;;;;;;;;;5012297;28;20360;-59
2021/08/23 02:35:49;;;;;;;;;;;;;;;;;;5010110;28;19916;-60
2021/08/23 02:38:15;;;;;;;;;;;;;;;;;;5011259;28;20036;-60
2021/08/23 02:40:41;;;;;;;;;;;;;;;;;;5014302;28;20258;-60
2021/08/23 02:43:07;;;;;;;;;;;;;;;;;;5014473;28;19913;-60
2021/08/23 02:45:33;;;;;;;;;;;;;;;;;;5014209;28;19952;-60
2021/08/23 02:47:59;;;;;;;;;;;;;;;;;;5012429;28;19909;-60
2021/08/23 02:50:25;;;;;;;;;;;;;;;;;;5012582;28;19975;-60
2021/08/23 02:52:51;;;;;;;;;;;;;;;;;;5013805;28;19953;-60
2021/08/23 02:55:17;;;;;;;;;;;;;;;;;;5011816;28;20369;-60
2021/08/23 02:57:42;;;;;;;;;;;;;;;;;;5013144;28;19920;-60
2021/08/23 03:00:08;;;;;;;;;;;;;;;;;;5013439;28;19917;-60
2021/08/23 03:02:34;;;;;;;;;;;;;;;;;;5013198;28;19993;-60
2021/08/23 03:05:00;;;;;;;;;;;;;;;;;;5009547;28;19913;-60
2021/08/23 03:07:26;;;;;;;;;;;;;;;;;;5012234;28;19952;-60
2021/08/23 03:09:52;;;;;;;;;;;;;;;;;;5013290;28;19919;-59
2021/08/23 03:12:18;;;;;;;;;;;;;;;;;;5009308;28;19948;-60
2021/08/23 03:14:44;;;;;;;;;;;;;;;;;;5012180;28;19909;-60
2021/08/23 03:17:10;;;;;;;;;;;;;;;;;;5012689;28;19909;-60
2021/08/23 03:19:36;;;;;;;;;;;;;;;;;;5003841;28;19913;-60
2021/08/23 03:22:01;;;;;;;;;;;;;;;;;;5009466;28;19916;-61
2021/08/23 03:24:27;;;;;;;;;;;;;;;;;;5010883;28;19914;-60
2021/08/23 03:26:53;;;;;;;;;;;;;;;;;;5013466;28;19917;-60
2021/08/23 03:29:19;;;;;;;;;;;;;;;;;;5005298;28;19913;-60
2021/08/23 03:31:45;;;;;;;;;;;;;;;;;;5013384;28;19984;-60
2021/08/23 03:34:12;;;;;;;;;;;;;;;;;;5010472;28;19945;-60
2021/08/23 03:36:38;;;;;;;;;;;;;;;;;;5010377;28;19960;-60
2021/08/23 03:39:04;;;;;;;;;;;;;;;;;;5013057;28;20314;-60
2021/08/23 03:41:30;;;;;;;;;;;;;;;;;;5013273;28;19916;-60
2021/08/23 03:43:56;;;;;;;;;;;;;;;;;;5010579;28;19920;-60
2021/08/23 03:46:22;;;;;;;;;;;;;;;;;;5013135;28;19917;-60
2021/08/23 03:48:48;;;;;;;;;;;;;;;;;;5012905;28;19913;-60
2021/08/23 03:51:14;;;;;;;;;;;;;;;;;;5013327;28;20408;-59
2021/08/23 03:53:40;;;;;;;;;;;;;;;;;;5011091;28;19963;-60
2021/08/23 03:56:05;;;;;;;;;;;;;;;;;;5012932;28;19937;-60
2021/08/23 03:58:31;;;;;;;;;;;;;;;;;;5004537;28;19987;-60
2021/08/23 04:00:58;;;;;;;;;;;;;;;;;;5010780;28;20390;-60
2021/08/23 04:03:24;;;;;;;;;;;;;;;;;;5012342;28;19915;-60
2021/08/23 04:05:50;;;;;;;;;;;;;;;;;;5008334;28;20000;-60
2021/08/23 04:08:16;;;;;;;;;;;;;;;;;;5007908;28;19913;-60
2021/08/23 04:10:42;;;;;;;;;;;;;;;;;;5012620;28;19928;-61
2021/08/23 04:13:08;;;;;;;;;;;;;;;;;;5008237;28;20328;-60
2021/08/23 04:15:34;;;;;;;;;;;;;;;;;;5003877;28;19913;-60
2021/08/23 04:18:00;;;;;;;;;;;;;;;;;;5012209;28;19979;-60
2021/08/23 04:20:25;;;;;;;;;;;;;;;;;;5010452;28;19963;-61
2021/08/23 04:22:51;;;;;;;;;;;;;;;;;;5005563;28;19910;-60
2021/08/23 04:25:17;;;;;;;;;;;;;;;;;;5012470;28;19961;-61
2021/08/23 04:27:43;;;;;;;;;;;;;;;;;;5010997;28;20376;-61
2021/08/23 04:30:09;;;;;;;;;;;;;;;;;;5009170;28;19916;-61
2021/08/23 04:32:35;;;;;;;;;;;;;;;;;;5024726;28;19914;-61
2021/08/23 04:35:01;;;;;;;;;;;;;;;;;;5003839;28;20253;-60
2021/08/23 04:37:27;;;;;;;;;;;;;;;;;;5007688;28;19924;-60
2021/08/23 04:39:53;;;;;;;;;;;;;;;;;;5011132;28;19934;-60
2021/08/23 04:42:18;;;;;;;;;;;;;;;;;;5012574;28;19917;-60
2021/08/23 04:44:44;;;;;;;;;;;;;;;;;;5005597;28;19955;-60
2021/08/23 04:47:10;;;;;;;;;;;;;;;;;;5011985;28;20350;-60
2021/08/23 04:49:36;;;;;;;;;;;;;;;;;;5005842;28;19916;-60
2021/08/23 04:52:02;;;;;;;;;;;;;;;;;;5012488;28;19909;-61
2021/08/23 04:54:28;;;;;;;;;;;;;;;;;;5012124;28;20277;-60
2021/08/23 04:56:54;;;;;;;;;;;;;;;;;;5016272;28;19909;-60
2021/08/23 04:59:20;;;;;;;;;;;;;;;;;;5014752;28;19967;-61
2021/08/23 05:01:46;;;;;;;;;;;;;;;;;;5016442;28;19913;-61
2021/08/23 05:04:12;;;;;;;;;;;;;;;;;;5015672;28;19937;-60
2021/08/23 05:06:38;;;;;;;;;;;;;;;;;;5006547;28;20003;-60
2021/08/23 05:09:04;;;;;;;;;;;;;;;;;;5008003;28;19977;-60
2021/08/23 05:11:29;;;;;;;;;;;;;;;;;;5016120;28;19949;-61
2021/08/23 05:13:55;;;;;;;;;;;;;;;;;;5007934;28;20402;-60
2021/08/23 05:16:21;;;;;;;;;;;;;;;;;;5006664;28;19913;-60
2021/08/23 05:18:47;;;;;;;;;;;;;;;;;;5011085;28;19932;-60
2021/08/23 05:21:13;;;;;;;;;;;;;;;;;;5014196;28;19944;-60
2021/08/23 05:23:39;;;;;;;;;;;;;;;;;;5013998;28;19975;-60
2021/08/23 05:26:05;;;;;;;;;;;;;;;;;;5011571;28;19940;-60
2021/08/23 05:28:31;;;;;;;;;;;;;;;;;;5009194;28;19913;-60
2021/08/23 05:30:57;;;;;;;;;;;;;;;;;;5015106;28;20354;-61
2021/08/23 05:33:23;;;;;;;;;;;;;;;;;;5014152;28;19959;-61
2021/08/23 05:35:48;;;;;;;;;;;;;;;;;;5012141;28;20004;-61
2021/08/23 05:38:14;;;;;;;;;;;;;;;;;;5013584;28;19913;-61
2021/08/23 05:40:40;;;;;;;;;;;;;;;;;;5013917;28;19948;-60
2021/08/23 05:43:06;;;;;;;;;;;;;;;;;;5014318;28;19948;-61
2021/08/23 05:45:32;;;;;;;;;;;;;;;;;;5009776;28;19944;-60
2021/08/23 05:47:58;;;;;;;;;;;;;;;;;;5013234;28;20401;-60
2021/08/23 05:50:24;;;;;;;;;;;;;;;;;;5009898;28;19945;-61
2021/08/23 05:52:50;;;;;;;;;;;;;;;;;;5014378;28;19984;-61
2021/08/23 05:55:16;;;;;;;;;;;;;;;;;;5010397;28;20374;-60
2021/08/23 05:57:42;;;;;;;;;;;;;;;;;;5008235;28;19955;-60
2021/08/23 06:00:08;;;;;;;;;;;;;;;;;;5007853;28;19925;-61
2021/08/23 06:02:34;;;;;;;;;;;;;;;;;;5014148;28;19909;-59
2021/08/23 06:05:00;;;;;;;;;;;;;;;;;;5013398;28;20272;-60
2021/08/23 06:07:26;;;;;;;;;;;;;;;;;;5010954;28;20365;-60
2021/08/23 06:09:52;;;;;;;;;;;;;;;;;;4994609;28;19956;-60
2021/08/23 06:12:18;;;;;;;;;;;;;;;;;;5006701;28;19937;-60
2021/08/23 06:14:44;;;;;;;;;;;;;;;;;;5012858;28;20333;-60
2021/08/23 06:17:14;;;;;;;;;;;;;;;;;;5010969;28;19921;-60
2021/08/23 06:19:40;;;;;;;;;;;;;;;;;;5014348;28;19941;-59
2021/08/23 06:22:05;;;;;;;;;;;;;;;;;;5012200;28;19941;-60
2021/08/23 06:24:31;;;;;;;;;;;;;;;;;;5014315;28;19984;-60
2021/08/23 06:26:57;;;;;;;;;;;;;;;;;;5013172;28;19982;-60
2021/08/23 06:29:23;;;;;;;;;;;;;;;;;;5010127;28;20320;-60
2021/08/23 06:31:49;;;;;;;;;;;;;;;;;;5013890;28;19913;-59
2021/08/23 06:34:15;;;;;;;;;;;;;;;;;;5014763;28;19905;-60
2021/08/23 06:36:44;;;;;;;;;;;;;;;;;;5013299;28;20413;-59
2021/08/23 06:39:10;;;;;;;;;;;;;;;;;;5012624;28;19952;-60
2021/08/23 06:41:36;;;;;;;;;;;;;;;;;;5013710;28;19917;-60
2021/08/23 06:44:02;;;;;;;;;;;;;;;;;;5013231;28;19959;-60
2021/08/23 06:46:28;;;;;;;;;;;;;;;;;;5013321;28;19913;-60
2021/08/23 06:48:54;;;;;;;;;;;;;;;;;;5005089;28;19949;-59
2021/08/23 06:51:21;;;;;;;;;;;;;;;;;;5012940;28;20300;-60
2021/08/23 06:53:46;;;;;;;;;;;;;;;;;;5014147;28;19956;-60
2021/08/23 06:56:12;;;;;;;;;;;;;;;;;;5014084;28;20354;-59
2021/08/23 06:58:38;;;;;;;;;;;;;;;;;;5014237;28;19948;-60
2021/08/23 07:01:04;;;;;;;;;;;;;;;;;;5013962;28;20293;-60
2021/08/23 07:03:30;;;;;;;;;;;;;;;;;;5013344;28;20305;-59
2021/08/23 07:05:56;;;;;;;;;;;;;;;;;;5013304;28;20060;-60
2021/08/23 07:08:22;;;;;;;;;;;;;;;;;;5013936;28;19951;-60
2021/08/23 07:10:49;;;;;;;;;;;;;;;;;;5013775;28;19918;-60
2021/08/23 07:13:15;;;;;;;;;;;;;;;;;;5009521;28;20392;-60
2021/08/23 07:15:41;;;;;;;;;;;;;;;;;;5026841;28;19936;-60
2021/08/23 07:18:07;;;;;;;;;;;;;;;;;;5008789;28;19996;-60
2021/08/23 07:20:32;;;;;;;;;;;;;;;;;;5011600;28;20411;-60
2021/08/23 07:22:58;;;;;;;;;;;;;;;;;;5013302;28;20012;-60
2021/08/23 07:25:24;;;;;;;;;;;;;;;;;;5013418;28;20298;-59
2021/08/23 07:27:50;;;;;;;;;;;;;;;;;;5013538;28;20004;-60
2021/08/23 07:30:16;;;;;;;;;;;;;;;;;;5013882;28;19944;-59
2021/08/23 07:32:43;;;;;;;;;;;;;;;;;;5013708;28;20000;-60
2021/08/23 07:35:09;;;;;;;;;;;;;;;;;;5012753;28;19910;-58
2021/08/23 07:37:37;;;;;;;;;;;;;;;;;;5002432;28;19959;-59
2021/08/23 07:40:03;;;;;;;;;;;;;;;;;;5013258;28;19920;-60
2021/08/23 07:42:29;;;;;;;;;;;;;;;;;;5028458;28;19944;-60
2021/08/23 07:44:55;;;;;;;;;;;;;;;;;;5013496;28;19912;-60
2021/08/23 07:47:21;;;;;;;;;;;;;;;;;;5008618;28;19936;-59
2021/08/23 07:49:47;;;;;;;;;;;;;;;;;;5013070;28;20022;-59
2021/08/23 07:52:12;;;;;;;;;;;;;;;;;;5012571;28;19909;-60
2021/08/23 07:54:38;;;;;;;;;;;;;;;;;;5013129;28;19910;-59
2021/08/23 07:57:04;;;;;;;;;;;;;;;;;;5005869;28;19947;-60
2021/08/23 07:59:30;;;;;;;;;;;;;;;;;;5013025;28;19905;-60
2021/08/23 08:01:56;;;;;;;;;;;;;;;;;;5013343;28;19947;-59
2021/08/23 08:04:22;;;;;;;;;;;;;;;;;;5013240;28;20408;-60
2021/08/23 08:06:48;;;;;;;;;;;;;;;;;;5012681;28;19913;-60
2021/08/23 08:09:14;;;;;;;;;;;;;;;;;;5012778;28;19909;-60
2021/08/23 08:11:40;;;;;;;;;;;;;;;;;;5012762;28;19917;-59
2021/08/23 08:14:05;;;;;;;;;;;;;;;;;;5012978;28;20000;-60
2021/08/23 08:16:31;;;;;;;;;;;;;;;;;;5012850;28;19968;-60
2021/08/23 08:18:57;;;;;;;;;;;;;;;;;;5012388;28;19910;-60
2021/08/23 08:21:23;;;;;;;;;;;;;;;;;;5012833;28;20026;-60
2021/08/23 08:23:53;;;;;;;;;;;;;;;;;;5012906;28;19913;-60
2021/08/23 08:26:19;;;;;;;;;;;;;;;;;;5012973;28;19917;-60
2021/08/23 08:28:45;;;;;;;;;;;;;;;;;;5012056;28;19905;-59
2021/08/23 08:31:10;;;;;;;;;;;;;;;;;;5012598;28;19906;-59
2021/08/23 08:33:36;;;;;;;;;;;;;;;;;;5017547;28;19914;-60
2021/08/23 08:36:02;;;;;;;;;;;;;;;;;;5012739;28;20380;-59
2021/08/23 08:38:28;;;;;;;;;;;;;;;;;;5007563;28;19944;-60
2021/08/23 08:40:54;;;;;;;;;;;;;;;;;;5016402;28;19910;-60
2021/08/23 08:43:20;;;;;;;;;;;;;;;;;;5012762;28;19905;-59
2021/08/23 08:45:46;;;;;;;;;;;;;;;;;;5012348;28;19917;-59
2021/08/23 08:48:12;;;;;;;;;;;;;;;;;;5012466;28;19974;-59
2021/08/23 08:50:38;;;;;;;;;;;;;;;;;;5012584;28;19959;-58
2021/08/23 08:53:06;;;;;;;;;;;;;;;;;;5011161;28;19948;-60
2021/08/23 08:55:35;;;;;;;;;;;;;;;;;;5013065;28;20400;-60
2021/08/23 08:58:01;;;;;;;;;;;;;;;;;;5012241;28;19917;-60
2021/08/23 09:00:27;;;;;;;;;;;;;;;;;;5012754;28;19905;-60
2021/08/23 09:02:54;;;;;;;;;;;;;;;;;;5011433;28;20383;-59
2021/08/23 09:05:19;;;;;;;;;;;;;;;;;;5012107;28;19916;-59
2021/08/23 09:07:45;;;;;;;;;;;;;;;;;;5011922;28;19924;-59
2021/08/23 09:10:11;;;;;;;;;;;;;;;;;;5012293;28;19924;-59
2021/08/23 09:12:37;;;;;;;;;;;;;;;;;;5010371;28;19945;-60
2021/08/23 09:15:03;;;;;;;;;;;;;;;;;;5009726;28;20353;-58
2021/08/23 09:17:29;;;;;;;;;;;;;;;;;;5012415;28;19959;-60
2021/08/23 09:19:55;;;;;;;;;;;;;;;;;;5011321;28;20331;-59
2021/08/23 09:22:21;;;;;;;;;;;;;;;;;;5005250;28;19999;-60
2021/08/23 09:24:48;;;;;;;;;;;;;;;;;;5012095;28;19919;-59
2021/08/23 09:27:14;;;;;;;;;;;;;;;;;;5012105;28;20004;-60
2021/08/23 09:29:40;;;;;;;;;;;;;;;;;;5012047;28;19959;-59
2021/08/23 09:32:05;;;;;;;;;;;;;;;;;;5006676;28;19950;-58
2021/08/23 09:34:31;;;;;;;;;;;;;;;;;;5012157;28;19931;-59
2021/08/23 09:36:58;;;;;;;;;;;;;;;;;;5011853;28;19944;-58
2021/08/23 09:39:23;;;;;;;;;;;;;;;;;;5012018;28;20376;-59
2021/08/23 09:41:49;;;;;;;;;;;;;;;;;;5013853;28;19960;-59
2021/08/23 09:44:15;;;;;;;;;;;;;;;;;;5014592;28;19920;-59
2021/08/23 09:46:41;;;;;;;;;;;;;;;;;;5015505;28;19913;-59
2021/08/23 09:49:07;;;;;;;;;;;;;;;;;;5015447;28;19916;-59
2021/08/23 09:51:36;;;;;;;;;;;;;;;;;;5015591;28;19910;-59
2021/08/23 09:54:02;;;;;;;;;;;;;;;;;;5015552;28;19912;-60
2021/08/23 09:56:27;;;;;;;;;;;;;;;;;;5015824;28;19945;-60
2021/08/23 09:58:53;;;;;;;;;;;;;;;;;;5014983;28;19916;-59
2021/08/23 10:01:19;;;;;;;;;;;;;;;;;;5015175;28;19916;-59
2021/08/23 10:03:45;;;;;;;;;;;;;;;;;;5012029;28;20411;-58
2021/08/23 10:06:11;;;;;;;;;;;;;;;;;;5015164;28;19909;-60
2021/08/23 10:08:37;;;;;;;;;;;;;;;;;;5014916;28;19963;-60
2021/08/23 10:11:03;;;;;;;;;;;;;;;;;;5011319;28;20276;-59
2021/08/23 10:13:29;;;;;;;;;;;;;;;;;;5014647;28;19913;-59
2021/08/23 10:15:55;;;;;;;;;;;;;;;;;;5014669;28;19905;-60
2021/08/23 10:18:21;;;;;;;;;;;;;;;;;;5013006;28;19920;-58
2021/08/23 10:20:46;;;;;;;;;;;;;;;;;;5009670;28;19917;-58
2021/08/23 10:23:12;;;;;;;;;;;;;;;;;;5013131;28;20296;-59
2021/08/23 10:25:38;;;;;;;;;;;;;;;;;;5015039;28;19968;-59
2021/08/23 10:28:05;;;;;;;;;;;;;;;;;;5011410;28;19910;-59
2021/08/23 10:30:31;;;;;;;;;;;;;;;;;;5014980;28;19971;-59
2021/08/23 10:32:57;;;;;;;;;;;;;;;;;;5007223;28;19956;-58
2021/08/23 10:35:22;;;;;;;;;;;;;;;;;;5010432;28;19909;-59
2021/08/23 10:37:48;;;;;;;;;;;;;;;;;;4997481;28;19956;-59
2021/08/23 10:40:14;;;;;;;;;;;;;;;;;;5012348;28;20341;-58
2021/08/23 10:42:40;;;;;;;;;;;;;;;;;;5009602;28;19989;-59
2021/08/23 10:45:06;;;;;;;;;;;;;;;;;;5013724;28;19905;-59
2021/08/23 10:47:32;;;;;;;;;;;;;;;;;;5009049;28;19941;-58
2021/08/23 10:49:58;;;;;;;;;;;;;;;;;;5008884;28;20008;-58
2021/08/23 10:52:24;;;;;;;;;;;;;;;;;;5006253;28;19982;-59
2021/08/23 10:54:51;;;;;;;;;;;;;;;;;;5006491;28;19943;-58
2021/08/23 10:57:17;;;;;;;;;;;;;;;;;;5008201;28;19906;-58
2021/08/23 10:59:43;;;;;;;;;;;;;;;;;;5008622;28;19947;-59
2021/08/23 11:02:09;;;;;;;;;;;;;;;;;;5005281;28;19909;-58
2021/08/23 11:04:37;;;;;;;;;;;;;;;;;;5003968;28;20398;-59
2021/08/23 11:07:03;;;;;;;;;;;;;;;;;;4997743;28;19914;-56
2021/08/23 11:09:29;;;;;;;;;;;;;;;;;;5009344;28;20423;-58
2021/08/23 11:11:55;;;;;;;;;;;;;;;;;;5013869;28;19999;-59
2021/08/23 11:14:21;;;;;;;;;;;;;;;;;;5013940;28;19909;-59
2021/08/23 11:16:47;;;;;;;;;;;;;;;;;;5013688;28;20361;-59
2021/08/23 11:19:13;;;;;;;;;;;;;;;;;;5013577;28;19952;-59
2021/08/23 11:21:46;;;;;;;;;;;;;;;;;;5014160;28;20276;-59
2021/08/23 11:24:12;;;;;;;;;;;;;;;;;;5013603;28;19952;-59
2021/08/23 11:26:38;;;;;;;;;;;;;;;;;;5013445;28;19964;-59
2021/08/23 11:29:04;;;;;;;;;;;;;;;;;;5013686;28;20465;-59
2021/08/23 11:31:29;;;;;;;;;;;;;;;;;;5013472;28;19906;-59
2021/08/23 11:33:55;;;;;;;;;;;;;;;;;;5012731;28;19949;-59
2021/08/23 11:36:22;;;;;;;;;;;;;;;;;;5012926;28;20000;-59
2021/08/23 11:38:48;;;;;;;;;;;;;;;;;;5012511;28;20007;-57
2021/08/23 11:41:14;;;;;;;;;;;;;;;;;;5013568;28;20409;-58
2021/08/23 11:43:40;;;;;;;;;;;;;;;;;;5010115;28;20257;-59
2021/08/23 11:46:06;;;;;;;;;;;;;;;;;;5003433;28;20345;-57
2021/08/23 11:48:32;;;;;;;;;;;;;;;;;;5012001;28;19944;-58
2021/08/23 11:50:58;;;;;;;;;;;;;;;;;;5012965;28;19995;-59
2021/08/23 11:53:27;;;;;;;;;;;;;;;;;;5012822;28;20331;-58
2021/08/23 11:55:53;;;;;;;;;;;;;;;;;;5013358;28;20342;-59
2021/08/23 11:58:20;;;;;;;;;;;;;;;;;;5012561;28;19919;-59
2021/08/23 12:00:46;;;;;;;;;;;;;;;;;;5013475;28;19906;-59
2021/08/23 12:03:12;;;;;;;;;;;;;;;;;;5012380;28;20268;-59
2021/08/23 12:05:38;;;;;;;;;;;;;;;;;;5013029;28;20016;-59
2021/08/23 12:08:04;;;;;;;;;;;;;;;;;;5012013;28;19952;-59
2021/08/23 12:10:30;;;;;;;;;;;;;;;;;;5010068;28;19924;-59
2021/08/23 12:12:56;;;;;;;;;;;;;;;;;;5012091;28;20354;-58
2021/08/23 12:15:25;;;;;;;;;;;;;;;;;;5010790;28;19947;-59
2021/08/23 12:17:51;;;;;;;;;;;;;;;;;;5007323;28;20081;-59
2021/08/23 12:20:17;;;;;;;;;;;;;;;;;;4999688;28;20013;-59
2021/08/23 12:22:42;;;;;;;;;;;;;;;;;;5003996;28;19913;-59
2021/08/23 12:25:08;;;;;;;;;;;;;;;;;;5006025;28;19916;-59
2021/08/23 12:27:34;;;;;;;;;;;;;;;;;;5032658;28;19910;-58
2021/08/23 12:30:02;;;;;;;;;;;;;;;;;;5011251;28;19916;-56
2021/08/23 12:32:28;;;;;;;;;;;;;;;;;;5006155;28;20014;-59
2021/08/23 12:34:54;;;;;;;;;;;;;;;;;;5014160;28;20374;-58
2021/08/23 12:37:20;;;;;;;;;;;;;;;;;;5012152;28;20047;-59
2021/08/23 12:39:46;;;;;;;;;;;;;;;;;;5010751;28;19979;-59
2021/08/23 12:42:12;;;;;;;;;;;;;;;;;;5020775;28;19913;-57
2021/08/23 12:44:38;;;;;;;;;;;;;;;;;;5014700;28;20016;-57
2021/08/23 12:47:04;;;;;;;;;;;;;;;;;;5015367;28;20029;-58
2021/08/23 12:49:30;;;;;;;;;;;;;;;;;;5012048;28;19944;-59
2021/08/23 12:51:56;;;;;;;;;;;;;;;;;;5013758;28;19913;-59
2021/08/23 12:54:22;;;;;;;;;;;;;;;;;;5009562;28;19935;-59
2021/08/23 12:56:48;;;;;;;;;;;;;;;;;;5006527;28;19914;-59
2021/08/23 12:59:14;;;;;;;;;;;;;;;;;;4999815;28;19952;-59
2021/08/23 13:01:40;;;;;;;;;;;;;;;;;;5029764;28;19936;-59
2021/08/23 13:04:05;;;;;;;;;;;;;;;;;;5007751;28;19945;-57
2021/08/23 13:06:31;;;;;;;;;;;;;;;;;;5011458;28;20018;-59
2021/08/23 13:08:58;;;;;;;;;;;;;;;;;;5011477;28;20381;-58
2021/08/23 13:11:24;;;;;;;;;;;;;;;;;;5009485;28;19944;-59
2021/08/23 13:13:50;;;;;;;;;;;;;;;;;;5011631;28;19944;-57
2021/08/23 13:16:15;;;;;;;;;;;;;;;;;;5011572;28;19992;-58
2021/08/23 13:18:41;;;;;;;;;;;;;;;;;;5016982;28;20304;-58
2021/08/23 13:21:07;;;;;;;;;;;;;;;;;;5013061;28;19966;-58
2021/08/23 13:23:33;;;;;;;;;;;;;;;;;;5011950;28;19952;-57
2021/08/23 13:25:59;;;;;;;;;;;;;;;;;;5001761;28;19968;-54
2021/08/23 13:28:25;;;;;;;;;;;;;;;;;;5017870;28;19909;-58
2021/08/23 13:30:51;;;;;;;;;;;;;;;;;;5014625;28;19964;-58
2021/08/23 13:33:17;;;;;;;;;;;;;;;;;;5004564;28;19910;-57
2021/08/23 13:35:43;;;;;;;;;;;;;;;;;;5011584;28;20304;-59
2021/08/23 13:38:09;;;;;;;;;;;;;;;;;;5010549;28;19909;-59
2021/08/23 13:40:35;;;;;;;;;;;;;;;;;;5015827;28;20044;-59
2021/08/23 13:43:01;;;;;;;;;;;;;;;;;;5014128;28;19913;-59
2021/08/23 13:45:27;;;;;;;;;;;;;;;;;;5008426;28;19957;-58
2021/08/23 13:47:53;;;;;;;;;;;;;;;;;;5014618;28;20004;-58
2021/08/23 13:50:19;;;;;;;;;;;;;;;;;;5013968;28;19913;-59
2021/08/23 13:52:45;;;;;;;;;;;;;;;;;;5012049;28;19915;-57
2021/08/23 13:55:11;;;;;;;;;;;;;;;;;;5009395;28;19909;-58
2021/08/23 13:57:37;;;;;;;;;;;;;;;;;;5011895;28;19920;-59
2021/08/23 14:00:02;;;;;;;;;;;;;;;;;;5014950;28;19905;-57
2021/08/23 14:02:28;;;;;;;;;;;;;;;;;;5011968;28;20321;-58
2021/08/23 14:04:54;;;;;;;;;;;;;;;;;;5004135;28;19917;-57
2021/08/23 14:07:20;;;;;;;;;;;;;;;;;;5008519;28;19913;-58
2021/08/23 14:09:46;;;;;;;;;;;;;;;;;;5011666;28;19965;-58
2021/08/23 14:12:12;;;;;;;;;;;;;;;;;;5010540;28;20387;-57
2021/08/23 14:14:38;;;;;;;;;;;;;;;;;;5015028;28;19992;-59
2021/08/23 14:17:04;;;;;;;;;;;;;;;;;;5015117;28;19905;-54
2021/08/23 14:19:30;;;;;;;;;;;;;;;;;;5014550;28;20336;-58
2021/08/23 14:21:56;;;;;;;;;;;;;;;;;;5008423;28;20321;-59
2021/08/23 14:24:22;;;;;;;;;;;;;;;;;;5013661;28;19971;-59
2021/08/23 14:26:48;;;;;;;;;;;;;;;;;;5013268;28;19910;-59
2021/08/23 14:29:14;;;;;;;;;;;;;;;;;;5013687;28;20369;-58
2021/08/23 14:31:40;;;;;;;;;;;;;;;;;;5010070;28;19992;-59
2021/08/23 14:34:07;;;;;;;;;;;;;;;;;;5008621;28;20003;-59
2021/08/23 14:36:33;;;;;;;;;;;;;;;;;;5013578;28;19909;-56
2021/08/23 14:38:59;;;;;;;;;;;;;;;;;;5014479;28;20473;-58
2021/08/23 14:41:24;;;;;;;;;;;;;;;;;;5003660;28;19964;-58
2021/08/23 14:43:51;;;;;;;;;;;;;;;;;;5014420;28;19915;-58
2021/08/23 14:46:16;;;;;;;;;;;;;;;;;;5002118;28;20364;-58
2021/08/23 14:48:43;;;;;;;;;;;;;;;;;;5030706;28;19996;-58
2021/08/23 14:51:09;;;;;;;;;;;;;;;;;;5005358;28;20262;-56
2021/08/23 14:53:35;;;;;;;;;;;;;;;;;;5006929;28;19912;-58
2021/08/23 14:56:01;;;;;;;;;;;;;;;;;;5014493;28;20243;-55
2021/08/23 14:58:26;;;;;;;;;;;;;;;;;;5014086;28;19933;-58
2021/08/23 15:00:53;;;;;;;;;;;;;;;;;;5010373;28;19993;-56
2021/08/23 15:03:19;;;;;;;;;;;;;;;;;;5013980;28;20336;-56
2021/08/23 15:05:45;;;;;;;;;;;;;;;;;;5013920;28;19960;-56
2021/08/23 15:08:10;;;;;;;;;;;;;;;;;;5014160;28;19905;-58
2021/08/23 15:10:36;;;;;;;;;;;;;;;;;;5008467;28;19968;-58
2021/08/23 15:13:02;;;;;;;;;;;;;;;;;;5013867;28;20367;-58
2021/08/23 15:15:28;;;;;;;;;;;;;;;;;;5013769;28;19912;-58
2021/08/23 15:17:54;;;;;;;;;;;;;;;;;;5013017;28;19940;-55
2021/08/23 15:20:21;;;;;;;;;;;;;;;;;;5013734;28;19906;-58
2021/08/23 15:22:47;;;;;;;;;;;;;;;;;;5013824;28;19936;-55
2021/08/23 15:25:13;;;;;;;;;;;;;;;;;;5013223;28;19906;-57
2021/08/23 15:27:39;;;;;;;;;;;;;;;;;;5013511;28;19925;-58
2021/08/23 15:30:04;;;;;;;;;;;;;;;;;;5012909;28;19906;-57
2021/08/23 15:32:33;;;;;;;;;;;;;;;;;;5013192;28;19936;-57
2021/08/23 15:34:59;;;;;;;;;;;;;;;;;;5012681;28;19912;-57
2021/08/23 15:37:25;;;;;;;;;;;;;;;;;;5002901;28;19920;-57
2021/08/23 15:39:55;;;;;;;;;;;;;;;;;;5008896;28;19948;-57
2021/08/23 15:42:21;;;;;;;;;;;;;;;;;;5011196;28;19924;-56
2021/08/23 15:44:47;;;;;;;;;;;;;;;;;;5012705;28;19944;-58
2021/08/23 15:47:15;;;;;;;;;;;;;;;;;;5013139;28;20448;-54
2021/08/23 15:49:41;;;;;;;;;;;;;;;;;;5009570;28;19948;-55
2021/08/23 15:52:07;;;;;;;;;;;;;;;;;;5009861;28;20321;-54
2021/08/23 15:54:33;;;;;;;;;;;;;;;;;;5013246;28;19914;-57
2021/08/23 15:56:59;;;;;;;;;;;;;;;;;;5008209;28;19966;-58
2021/08/23 15:59:25;;;;;;;;;;;;;;;;;;5010810;28;19913;-58
2021/08/23 16:01:51;;;;;;;;;;;;;;;;;;5012881;28;19953;-58
2021/08/23 16:04:17;;;;;;;;;;;;;;;;;;5011273;28;19910;-58
2021/08/23 16:06:43;;;;;;;;;;;;;;;;;;5015537;28;19948;-57
2021/08/23 16:09:09;;;;;;;;;;;;;;;;;;5012475;28;20008;-57
2021/08/23 16:11:35;;;;;;;;;;;;;;;;;;5012049;28;20053;-58
2021/08/23 16:14:01;;;;;;;;;;;;;;;;;;5012789;28;19975;-57
2021/08/23 16:16:27;;;;;;;;;;;;;;;;;;5012792;28;20393;-58
2021/08/23 16:18:53;;;;;;;;;;;;;;;;;;5009646;28;20321;-55
2021/08/23 16:21:19;;;;;;;;;;;;;;;;;;5009123;28;20387;-56
2021/08/23 16:23:49;;;;;;;;;;;;;;;;;;5012721;28;20016;-57
2021/08/23 16:26:15;;;;;;;;;;;;;;;;;;5011963;28;19913;-57
2021/08/23 16:28:40;;;;;;;;;;;;;;;;;;5010387;28;20015;-58
2021/08/23 16:31:06;;;;;;;;;;;;;;;;;;5010206;28;20470;-56
2021/08/23 16:33:32;;;;;;;;;;;;;;;;;;5007534;28;19914;-56
2021/08/23 16:35:58;;;;;;;;;;;;;;;;;;5005458;28;20362;-57